Airport Name : Norwich

Other Name : Norwich

ICAO : EGSH

IATA : NWI

FAA :

Latitude : 52.675833

Longitude : 1.282778

Country : United Kingdom

Local Date and Time : 17 Jun 2024 02:32

 

TAF (Terminal Aerodrome Forecast)

TAF EGSH 162253Z 1700/1709 23008KT 9999 FEW045

 

METAR (METeorological Aerodrome Report)

EGSH 170120Z AUTO 23006KT 9999 NCD 11/09 Q1005

EGSH 170050Z AUTO 22006KT 9999 NCD 12/09 Q1005

EGSH 170020Z AUTO 22006KT 9999 NCD 12/09 Q1005

EGSH 162350Z AUTO 22005KT 180V240 9999 NCD 12/09 Q1005

EGSH 162320Z AUTO 21005KT 9999 NCD 13/09 Q1005

EGSH 162250Z AUTO 20006KT 160V230 9999 NCD 12/09 Q1005

EGSH 162220Z AUTO 19005KT 160V230 9999 NCD 12/08 Q1005

EGSH 162150Z 19004KT 150V220 CAVOK 13/09 Q1005 NOSIG